createdAt,value
2018-09-10T00:01:05.149Z,1.20
2018-09-10T00:03:32.530Z,1.37
2018-09-10T00:05:59.893Z,0.97
2018-09-10T00:08:27.229Z,1.33
2018-09-10T00:10:54.594Z,1.20
2018-09-10T00:13:21.989Z,1.33
2018-09-10T00:15:49.349Z,1.50
2018-09-10T00:18:16.710Z,1.17
2018-09-10T00:20:44.085Z,1.80
2018-09-10T00:23:11.442Z,1.50
2018-09-10T00:25:38.806Z,1.53
2018-09-10T00:28:06.173Z,1.60
2018-09-10T00:30:33.550Z,1.20
2018-09-10T00:33:00.925Z,1.40
2018-09-10T00:35:28.289Z,1.30
2018-09-10T00:37:55.650Z,1.30
2018-09-10T00:40:23.024Z,1.43
2018-09-10T00:42:50.389Z,1.40
2018-09-10T00:45:21.437Z,1.40
2018-09-10T00:47:48.806Z,1.17
2018-09-10T00:50:22.050Z,1.60
2018-09-10T00:52:49.452Z,1.17
2018-09-10T00:55:16.820Z,1.73
2018-09-10T00:57:44.176Z,1.20
2018-09-10T01:00:11.568Z,1.63
2018-09-10T01:02:41.034Z,1.70
2018-09-10T01:05:08.409Z,1.60
2018-09-10T01:07:35.770Z,1.40
2018-09-10T01:10:03.158Z,1.33
2018-09-10T01:12:30.525Z,1.70
2018-09-10T01:14:57.893Z,1.37
2018-09-10T01:17:25.273Z,1.77
2018-09-10T01:19:53.129Z,1.80
2018-09-10T01:22:20.510Z,1.70
2018-09-10T01:24:47.935Z,1.50
2018-09-10T01:27:15.306Z,1.30
2018-09-10T01:29:42.690Z,1.70
2018-09-10T01:32:10.058Z,1.10
2018-09-10T01:34:43.150Z,1.50
2018-09-10T01:37:10.525Z,1.23
2018-09-10T01:39:37.897Z,1.63
2018-09-10T01:42:05.818Z,1.13
2018-09-10T01:46:41.191Z,1.83
2018-09-10T01:49:08.839Z,1.33
2018-09-10T01:51:36.527Z,1.23
2018-09-10T01:54:04.222Z,1.23
2018-09-10T01:56:31.901Z,1.40
2018-09-10T01:58:59.708Z,1.20
2018-09-10T02:01:30.362Z,1.23
2018-09-10T02:03:58.019Z,1.43
2018-09-10T02:06:25.690Z,1.40
2018-09-10T02:08:53.378Z,1.77
2018-09-10T02:11:21.054Z,1.03
2018-09-10T02:13:48.977Z,1.23
2018-09-10T02:16:17.231Z,1.53
2018-09-10T02:18:45.735Z,1.40
2018-09-10T02:21:13.818Z,1.50
2018-09-10T02:23:41.527Z,1.87
2018-09-10T02:26:09.084Z,1.83
2018-09-10T02:28:36.720Z,1.47
2018-09-10T02:31:04.876Z,1.77
2018-09-10T02:33:32.578Z,1.07
2018-09-10T02:36:00.343Z,1.73
2018-09-10T02:38:28.053Z,1.57
2018-09-10T02:40:55.694Z,1.10
2018-09-10T02:43:23.358Z,1.43
2018-09-10T02:45:51.275Z,1.50
2018-09-10T02:48:18.973Z,1.70
2018-09-10T02:50:46.651Z,1.13
2018-09-10T02:53:14.339Z,1.47
2018-09-10T02:55:42.108Z,1.50
2018-09-10T02:58:09.836Z,1.50
2018-09-10T03:00:37.548Z,1.60
2018-09-10T03:03:05.274Z,1.67
2018-09-10T03:05:32.954Z,1.87
2018-09-10T03:08:00.635Z,1.20
2018-09-10T03:10:28.330Z,1.20
2018-09-10T03:12:56.052Z,1.30
2018-09-10T03:15:23.827Z,1.00
2018-09-10T03:17:51.911Z,1.27
2018-09-10T03:20:19.670Z,1.37
2018-09-10T03:22:47.295Z,1.30
2018-09-10T03:25:14.943Z,1.80
2018-09-10T03:27:42.694Z,1.27
2018-09-10T03:30:10.390Z,1.70
2018-09-10T03:32:38.383Z,1.43
2018-09-10T03:35:06.145Z,1.67
2018-09-10T03:37:33.827Z,1.77
2018-09-10T03:40:01.499Z,1.77
2018-09-10T03:42:29.175Z,1.63
2018-09-10T03:44:56.819Z,1.30
2018-09-10T03:47:24.550Z,2.00
2018-09-10T03:49:52.574Z,1.83
2018-09-10T03:52:20.503Z,1.23
2018-09-10T03:54:48.678Z,1.80
2018-09-10T03:57:16.391Z,2.27
2018-09-10T03:59:44.051Z,1.50
2018-09-10T04:02:11.689Z,1.70
2018-09-10T04:04:39.302Z,1.87
2018-09-10T04:07:07.091Z,1.93
2018-09-10T04:09:34.727Z,1.47
2018-09-10T04:12:02.347Z,1.60
2018-09-10T04:14:30.006Z,1.60
2018-09-10T04:16:57.655Z,1.67
2018-09-10T04:19:25.386Z,1.77
2018-09-10T04:21:53.046Z,1.97
2018-09-10T04:31:23.461Z,1.87
2018-09-10T04:33:50.878Z,2.20
2018-09-10T04:36:18.257Z,2.30
2018-09-10T04:38:45.603Z,2.00
2018-09-10T04:41:12.962Z,1.33
2018-09-10T04:43:40.341Z,1.90
2018-09-10T04:46:07.723Z,1.43
2018-09-10T04:48:35.118Z,1.60
2018-09-10T04:51:02.534Z,1.50
2018-09-10T04:53:29.926Z,2.00
2018-09-10T04:55:57.303Z,2.00
2018-09-10T04:58:24.666Z,1.97
2018-09-10T05:00:52.185Z,1.60
2018-09-10T05:03:19.577Z,1.50
2018-09-10T05:05:46.951Z,1.57
2018-09-10T05:08:14.301Z,2.07
2018-09-10T05:10:41.698Z,2.07
2018-09-10T05:13:09.091Z,1.50
2018-09-10T05:15:36.450Z,2.03
2018-09-10T05:18:04.865Z,1.63
2018-09-10T05:20:32.583Z,1.80
2018-09-10T05:23:00.326Z,1.60
2018-09-10T05:25:27.986Z,1.80
2018-09-10T05:27:55.672Z,1.67
2018-09-10T05:30:23.331Z,2.10
2018-09-10T05:32:50.962Z,1.80
2018-09-10T05:35:18.699Z,2.70
2018-09-10T05:37:46.277Z,1.50
2018-09-10T05:40:14.023Z,2.30
2018-09-10T05:42:41.745Z,1.97
2018-09-10T05:45:10.903Z,2.20
2018-09-10T05:47:39.157Z,2.57
2018-09-10T05:50:07.142Z,2.30
2018-09-10T05:52:34.834Z,1.90
2018-09-10T05:55:02.662Z,2.00
2018-09-10T05:57:30.295Z,2.30
2018-09-10T05:59:57.990Z,2.10
2018-09-10T06:02:25.662Z,2.60
2018-09-10T06:04:53.295Z,2.17
2018-09-10T06:07:21.026Z,1.70
2018-09-10T06:09:48.643Z,2.77
2018-09-10T06:12:16.318Z,2.17
2018-09-10T06:14:43.987Z,2.83
2018-09-10T06:17:11.655Z,2.67
2018-09-10T06:19:39.326Z,2.27
2018-09-10T06:22:06.994Z,1.80
2018-09-10T06:24:34.742Z,2.50
2018-09-10T06:27:02.414Z,2.53
2018-09-10T06:29:30.074Z,2.30
2018-09-10T06:31:57.772Z,2.80
2018-09-10T06:34:25.426Z,3.13
2018-09-10T06:36:53.090Z,2.57
2018-09-10T06:39:20.815Z,3.57
2018-09-10T06:41:48.458Z,3.23
2018-09-10T06:44:16.459Z,3.03
2018-09-10T06:46:44.171Z,3.63
2018-09-10T06:49:11.866Z,3.10
2018-09-10T06:51:39.551Z,3.93
2018-09-10T06:54:07.238Z,3.30
2018-09-10T06:56:34.903Z,2.73
2018-09-10T06:59:02.647Z,2.30
2018-09-10T07:01:30.336Z,2.50
2018-09-10T07:03:58.051Z,3.00
2018-09-10T07:06:26.427Z,2.07
2018-09-10T07:08:54.206Z,3.20
2018-09-10T07:11:21.953Z,2.50
2018-09-10T07:13:49.674Z,3.27
2018-09-10T07:16:17.448Z,3.27
2018-09-10T07:18:45.281Z,3.23
2018-09-10T07:21:12.824Z,3.50
2018-09-10T07:23:40.516Z,3.67
2018-09-10T07:26:08.183Z,3.50
2018-09-10T07:28:35.867Z,3.00
2018-09-10T07:31:03.546Z,2.77
2018-09-10T07:33:31.219Z,3.50
2018-09-10T07:35:58.935Z,3.10
2018-09-10T07:38:26.563Z,3.43
2018-09-10T07:40:54.267Z,3.57
2018-09-10T07:43:21.974Z,3.23
2018-09-10T07:45:49.743Z,3.53
2018-09-10T07:48:17.454Z,2.97
2018-09-10T07:50:45.164Z,4.60
2018-09-10T07:53:12.820Z,3.50
2018-09-10T07:55:40.538Z,3.37
2018-09-10T07:58:12.091Z,3.47
2018-09-10T08:00:39.776Z,3.40
2018-09-10T08:03:07.550Z,3.47
2018-09-10T08:05:35.163Z,2.90
2018-09-10T08:08:02.859Z,3.20
2018-09-10T08:10:30.491Z,3.30
2018-09-10T08:12:58.127Z,2.97
2018-09-10T08:15:25.883Z,3.07
2018-09-10T08:17:53.559Z,3.80
2018-09-10T08:20:21.195Z,3.10
2018-09-10T08:22:48.906Z,4.00
2018-09-10T08:25:16.615Z,3.00
2018-09-10T08:27:44.242Z,3.17
2018-09-10T08:30:11.994Z,3.60
2018-09-10T08:32:39.630Z,3.20
2018-09-10T08:35:07.454Z,4.07
2018-09-10T08:37:35.209Z,3.27
2018-09-10T08:40:02.915Z,3.43
2018-09-10T08:42:30.578Z,3.20
2018-09-10T08:44:58.360Z,2.47
2018-09-10T08:47:26.040Z,2.83
2018-09-10T08:49:53.791Z,3.40
2018-09-10T08:52:21.555Z,2.97
2018-09-10T08:54:49.427Z,3.30
2018-09-10T08:57:16.973Z,5.27
2018-09-10T08:59:44.811Z,3.97
2018-09-10T09:02:12.584Z,4.30
2018-09-10T09:04:40.331Z,3.90
2018-09-10T09:07:08.003Z,3.00
2018-09-10T09:09:39.384Z,4.40
2018-09-10T09:12:07.106Z,3.47
2018-09-10T09:14:34.857Z,3.60
2018-09-10T09:17:02.518Z,2.77
2018-09-10T09:19:30.192Z,3.43
2018-09-10T09:21:57.947Z,3.80
2018-09-10T09:24:25.591Z,3.10
2018-09-10T09:26:53.238Z,3.00
2018-09-10T09:29:20.934Z,2.43
2018-09-10T09:31:48.570Z,2.60
2018-09-10T09:34:16.247Z,2.57
2018-09-10T09:36:49.522Z,2.77
2018-09-10T09:39:22.748Z,2.50
2018-09-10T09:41:56.195Z,2.50
2018-09-10T09:44:29.481Z,3.07
2018-09-10T09:46:57.242Z,2.00
2018-09-10T09:49:24.987Z,2.87
2018-09-10T09:51:52.620Z,2.73
2018-09-10T09:54:20.350Z,3.27
2018-09-10T09:56:48.016Z,2.40
2018-09-10T09:59:15.738Z,2.60
2018-09-10T10:01:46.297Z,2.60
2018-09-10T10:04:14.103Z,2.90
2018-09-10T10:06:41.739Z,2.30
2018-09-10T10:09:10.815Z,3.27
2018-09-10T10:11:42.493Z,2.40
2018-09-10T10:14:10.951Z,2.87
2018-09-10T10:16:38.751Z,3.27
2018-09-10T10:19:06.413Z,2.50
2018-09-10T10:21:34.315Z,2.87
2018-09-10T10:24:02.066Z,2.80
2018-09-10T10:26:29.832Z,3.00
2018-09-10T10:28:57.526Z,2.90
2018-09-10T10:31:25.195Z,2.37
2018-09-10T10:33:52.822Z,2.50
2018-09-10T10:36:20.541Z,2.40
2018-09-10T10:38:48.231Z,2.40
2018-09-10T10:41:15.894Z,2.00
2018-09-10T10:43:43.559Z,2.87
2018-09-10T10:46:11.252Z,2.70
2018-09-10T10:48:38.909Z,1.90
2018-09-10T10:51:06.570Z,2.90
2018-09-10T10:53:34.273Z,2.60
2018-09-10T10:56:01.995Z,2.20
2018-09-10T10:58:29.614Z,2.00
2018-09-10T11:00:57.321Z,1.80
2018-09-10T11:03:24.955Z,2.20
2018-09-10T11:05:52.723Z,2.30
2018-09-10T11:08:20.474Z,1.97
2018-09-10T11:10:48.206Z,2.27
2018-09-10T11:13:15.883Z,2.50
2018-09-10T11:15:43.583Z,2.07
2018-09-10T11:18:14.787Z,2.70
2018-09-10T11:20:42.755Z,2.00
2018-09-10T11:23:10.451Z,2.77
2018-09-10T11:25:39.132Z,1.73
2018-09-10T11:28:06.807Z,2.37
2018-09-10T11:30:35.173Z,2.17
2018-09-10T11:33:02.871Z,2.10
2018-09-10T11:35:30.618Z,1.50
2018-09-10T11:37:58.322Z,2.03
2018-09-10T11:40:26.107Z,2.30
2018-09-10T11:42:54.139Z,1.77
2018-09-10T11:45:21.850Z,2.60
2018-09-10T11:47:50.286Z,2.43
2018-09-10T11:50:18.195Z,2.53
2018-09-10T11:52:49.090Z,2.63
2018-09-10T11:55:16.691Z,1.60
2018-09-10T11:57:44.330Z,2.10
2018-09-10T12:00:12.021Z,2.20
2018-09-10T12:02:39.698Z,1.87
2018-09-10T12:05:07.349Z,1.80
2018-09-10T12:07:34.995Z,2.10
2018-09-10T12:10:02.754Z,2.20
2018-09-10T12:12:30.415Z,2.43
2018-09-10T12:14:58.035Z,2.47
2018-09-10T12:17:25.754Z,1.73
2018-09-10T12:19:53.523Z,1.60
2018-09-10T12:22:21.235Z,1.60
2018-09-10T12:24:48.847Z,2.47
2018-09-10T12:27:16.539Z,2.17
2018-09-10T12:29:44.274Z,2.03
2018-09-10T12:32:16.038Z,2.03
2018-09-10T12:34:44.474Z,1.60
2018-09-10T12:37:12.367Z,1.93
2018-09-10T12:39:40.169Z,1.93
2018-09-10T12:42:08.147Z,2.03
2018-09-10T12:44:36.075Z,1.90
2018-09-10T12:47:03.912Z,1.60
2018-09-10T12:49:32.498Z,1.60
2018-09-10T12:52:00.174Z,2.13
2018-09-10T12:54:27.845Z,2.13
2018-09-10T12:56:55.520Z,1.70
2018-09-10T12:59:23.182Z,1.50
2018-09-10T13:01:50.843Z,1.70
2018-09-10T13:04:18.698Z,1.50
2018-09-10T13:06:46.329Z,1.87
2018-09-10T13:09:14.009Z,1.40
2018-09-10T13:11:41.731Z,1.80
2018-09-10T13:14:12.686Z,1.57
2018-09-10T13:16:40.424Z,1.57
2018-09-10T13:19:08.318Z,1.60
2018-09-10T13:21:36.028Z,1.80
2018-09-10T13:24:03.713Z,1.43
2018-09-10T13:26:31.393Z,1.90
2018-09-10T13:28:59.047Z,1.90
2018-09-10T13:31:26.755Z,1.93
2018-09-10T13:33:54.898Z,1.70
2018-09-10T13:36:22.588Z,1.87
2018-09-10T13:38:50.303Z,1.83
2018-09-10T13:41:17.983Z,1.87
2018-09-10T13:43:45.642Z,1.80
2018-09-10T13:46:13.390Z,1.60
2018-09-10T13:48:43.219Z,1.70
2018-09-10T13:51:10.863Z,1.40
2018-09-10T13:53:38.554Z,2.23
2018-09-10T13:56:06.246Z,1.30
2018-09-10T13:58:33.843Z,1.73
2018-09-10T14:01:01.469Z,1.63
2018-09-10T14:03:29.177Z,1.50
2018-09-10T14:05:56.892Z,1.53
2018-09-10T14:08:24.538Z,1.57
2018-09-10T14:10:53.599Z,2.00
2018-09-10T14:13:21.290Z,1.60
2018-09-10T14:15:48.951Z,1.60
2018-09-10T14:18:16.594Z,2.10
2018-09-10T14:20:44.243Z,1.83
2018-09-10T14:23:12.034Z,1.60
2018-09-10T14:25:39.767Z,1.83
2018-09-10T14:28:07.442Z,1.90
2018-09-10T14:30:35.059Z,1.40
2018-09-10T14:33:02.778Z,2.27
2018-09-10T14:35:30.519Z,1.63
2018-09-10T14:37:58.212Z,1.40
2018-09-10T14:40:25.895Z,1.83
2018-09-10T14:42:53.836Z,1.73
2018-09-10T14:45:22.503Z,1.90
2018-09-10T14:47:53.867Z,1.77
2018-09-10T14:50:21.565Z,2.03
2018-09-10T14:52:49.203Z,1.50
2018-09-10T14:55:16.950Z,1.57
2018-09-10T14:57:44.617Z,1.70
2018-09-10T15:00:17.790Z,1.57
2018-09-10T15:02:45.477Z,2.20
2018-09-10T15:05:13.233Z,1.97
2018-09-10T15:07:41.122Z,1.97
2018-09-10T15:10:08.830Z,1.70
2018-09-10T15:12:38.558Z,1.83
2018-09-10T15:15:06.243Z,1.90
2018-09-10T15:17:33.928Z,2.00
2018-09-10T15:20:01.487Z,1.93
2018-09-10T15:22:29.190Z,1.87
2018-09-10T15:24:57.210Z,2.33
2018-09-10T15:27:24.995Z,1.93
2018-09-10T15:29:52.774Z,1.90
2018-09-10T15:32:20.719Z,2.30
2018-09-10T15:34:48.611Z,2.20
2018-09-10T15:37:16.433Z,2.23
2018-09-10T15:39:44.147Z,2.23
2018-09-10T15:42:11.805Z,1.67
2018-09-10T15:44:39.490Z,2.73
2018-09-10T15:47:07.026Z,1.67
2018-09-10T15:49:34.695Z,2.17
2018-09-10T15:52:02.358Z,2.22
2018-09-10T15:54:30.403Z,2.17
2018-09-10T15:56:58.186Z,1.70
2018-09-10T15:59:25.867Z,2.53
2018-09-10T16:01:53.965Z,2.13
2018-09-10T16:04:21.642Z,2.63
2018-09-10T16:06:49.420Z,2.40
2018-09-10T16:09:17.155Z,2.30
2018-09-10T16:11:44.972Z,2.00
2018-09-10T16:14:16.052Z,1.93
2018-09-10T16:16:43.753Z,2.50
2018-09-10T16:19:11.726Z,2.27
2018-09-10T16:21:39.399Z,2.63
2018-09-10T16:24:07.127Z,3.07
2018-09-10T16:26:34.802Z,2.60
2018-09-10T16:29:02.492Z,2.57
2018-09-10T16:31:30.179Z,2.00
2018-09-10T16:33:57.981Z,2.33
2018-09-10T16:36:25.675Z,2.30
2018-09-10T16:38:53.555Z,3.10
2018-09-10T16:41:21.228Z,3.20
2018-09-10T16:43:48.907Z,2.83
2018-09-10T16:46:16.684Z,2.30
2018-09-10T16:48:44.335Z,2.60
2018-09-10T16:51:11.978Z,1.97
2018-09-10T16:53:39.574Z,2.73
2018-09-10T16:56:07.303Z,3.23
2018-09-10T16:58:35.006Z,3.00
2018-09-10T17:01:02.704Z,2.67
2018-09-10T17:03:30.418Z,2.37
2018-09-10T17:05:58.171Z,2.00
2018-09-10T17:08:25.962Z,2.70
2018-09-10T17:10:56.374Z,2.57
2018-09-10T17:13:24.070Z,3.00
2018-09-10T17:15:51.750Z,3.03
2018-09-10T17:18:22.751Z,2.87
2018-09-10T17:20:50.531Z,2.30
2018-09-10T17:23:18.251Z,2.70
2018-09-10T17:25:49.954Z,2.07
2018-09-10T17:28:17.671Z,1.80
2018-09-10T17:30:46.234Z,2.23
2018-09-10T17:33:16.339Z,2.30
2018-09-10T17:35:44.106Z,1.70
2018-09-10T17:38:11.841Z,2.20
2018-09-10T17:40:39.579Z,2.50
2018-09-10T17:43:07.242Z,2.60
2018-09-10T17:45:34.894Z,1.70
2018-09-10T17:48:02.967Z,2.00
2018-09-10T17:50:30.596Z,1.80
2018-09-10T17:52:58.343Z,1.83
2018-09-10T17:55:26.079Z,2.37
2018-09-10T17:57:54.003Z,2.10
2018-09-10T18:00:21.743Z,1.93
2018-09-10T18:02:49.452Z,2.33
2018-09-10T18:05:17.079Z,1.90
2018-09-10T18:07:44.759Z,1.60
2018-09-10T18:10:12.448Z,1.57
2018-09-10T18:12:40.215Z,1.40
2018-09-10T18:15:08.011Z,1.63
2018-09-10T18:17:35.731Z,1.77
2018-09-10T18:20:03.584Z,1.63
2018-09-10T18:22:31.270Z,2.13
2018-09-10T18:25:02.274Z,2.33
2018-09-10T18:27:29.923Z,2.10
2018-09-10T18:29:57.660Z,1.67
2018-09-10T18:32:25.304Z,1.87
2018-09-10T18:34:53.055Z,2.17
2018-09-10T18:37:20.789Z,1.73
2018-09-10T18:39:48.502Z,2.10
2018-09-10T18:42:17.182Z,2.30
2018-09-10T18:44:44.984Z,2.13
2018-09-10T18:47:12.879Z,1.77
2018-09-10T18:49:40.720Z,2.10
2018-09-10T18:52:08.706Z,1.70
2018-09-10T18:54:36.532Z,1.87
2018-09-10T18:57:04.310Z,2.37
2018-09-10T18:59:32.131Z,1.83
2018-09-10T19:02:00.388Z,1.60
2018-09-10T19:04:28.572Z,1.73
2018-09-10T19:06:56.710Z,2.53
2018-09-10T19:09:25.140Z,2.20
2018-09-10T19:11:53.389Z,2.53
2018-09-10T19:14:21.823Z,1.70
2018-09-10T19:16:51.006Z,2.10
2018-09-10T19:19:19.448Z,1.90
2018-09-10T19:21:48.149Z,1.80
2018-09-10T19:24:16.702Z,2.50
2018-09-10T19:26:45.040Z,2.40
2018-09-10T19:29:13.531Z,1.90
2018-09-10T19:31:42.076Z,2.93
2018-09-10T19:34:11.294Z,2.57
2018-09-10T19:36:40.908Z,2.40
2018-09-10T19:39:10.055Z,2.30
2018-09-10T19:41:38.782Z,2.90
2018-09-10T19:44:07.551Z,2.73
2018-09-10T19:46:36.892Z,2.63
2018-09-10T19:49:05.942Z,2.83
2018-09-10T19:51:35.077Z,1.90
2018-09-10T19:54:03.223Z,2.37
2018-09-10T19:56:31.743Z,2.50
2018-09-10T19:59:00.384Z,2.27
2018-09-10T20:01:28.277Z,2.60
2018-09-10T20:03:56.145Z,2.00
2018-09-10T20:06:24.374Z,2.00
2018-09-10T20:08:52.416Z,2.20
2018-09-10T20:11:20.367Z,2.17
2018-09-10T20:13:48.428Z,2.43
2018-09-10T20:16:16.322Z,2.37
2018-09-10T20:18:45.249Z,2.87
2018-09-10T20:21:13.014Z,2.07
2018-09-10T20:23:40.849Z,2.30
2018-09-10T20:26:08.854Z,2.23
2018-09-10T20:28:36.874Z,2.93
2018-09-10T20:31:05.045Z,2.40
2018-09-10T20:33:38.015Z,2.10
2018-09-10T20:36:05.929Z,3.20
2018-09-10T20:38:33.803Z,2.20
2018-09-10T20:41:01.535Z,2.77
2018-09-10T20:43:30.231Z,2.77
2018-09-10T20:45:58.933Z,2.13
2018-09-10T20:48:26.933Z,2.10
2018-09-10T20:50:54.646Z,3.00
2018-09-10T20:53:24.619Z,2.30
2018-09-10T21:11:19.778Z,3.90
2018-09-10T21:13:47.467Z,2.20
2018-09-10T21:16:15.123Z,2.47
2018-09-10T21:18:42.830Z,2.43
2018-09-10T21:21:10.718Z,2.67
2018-09-10T21:23:38.416Z,2.23
2018-09-10T21:26:06.375Z,2.50
2018-09-10T21:28:34.107Z,3.20
2018-09-10T21:31:02.002Z,2.80
2018-09-10T21:33:29.722Z,2.70
2018-09-10T21:35:57.561Z,2.47
2018-09-10T21:38:25.291Z,2.40
2018-09-10T21:40:53.138Z,2.87
2018-09-10T21:43:20.827Z,3.70
2018-09-10T21:45:48.558Z,2.43
2018-09-10T21:48:16.258Z,3.33
2018-09-10T21:50:43.987Z,2.87
2018-09-10T21:53:11.752Z,3.20
2018-09-10T21:55:39.478Z,2.63
2018-09-10T21:58:07.195Z,2.43
2018-09-10T22:00:34.887Z,2.70
2018-09-10T22:03:02.639Z,3.03
2018-09-10T22:05:30.334Z,3.60
2018-09-10T22:07:57.979Z,2.87
2018-09-10T22:10:25.665Z,2.73
2018-09-10T22:12:53.274Z,2.90
2018-09-10T22:15:20.883Z,2.97
2018-09-10T22:17:48.709Z,2.83
2018-09-10T22:20:16.334Z,3.10
2018-09-10T22:22:44.012Z,2.90
2018-09-10T22:25:11.761Z,3.60
2018-09-10T22:27:39.398Z,2.97
2018-09-10T22:30:07.153Z,2.57
2018-09-10T22:32:34.959Z,2.43
2018-09-10T22:35:02.727Z,3.30
2018-09-10T22:37:30.402Z,2.30
2018-09-10T22:39:58.130Z,2.90
2018-09-10T22:42:25.778Z,3.20
2018-09-10T22:44:53.463Z,2.70
2018-09-10T22:47:21.210Z,3.57
2018-09-10T22:49:48.855Z,2.27
2018-09-10T22:52:16.531Z,3.50
2018-09-10T22:54:44.242Z,2.83
2018-09-10T22:57:11.866Z,3.40
2018-09-10T22:59:39.581Z,2.90
2018-09-10T23:02:07.284Z,3.30
2018-09-10T23:04:34.910Z,4.13
2018-09-10T23:07:03.571Z,2.83
2018-09-10T23:09:31.294Z,2.17
2018-09-10T23:11:58.955Z,3.30
2018-09-10T23:14:26.627Z,2.80
2018-09-10T23:16:54.367Z,3.20
2018-09-10T23:19:22.099Z,3.07
2018-09-10T23:21:49.803Z,2.23
2018-09-10T23:24:17.805Z,2.37
2018-09-10T23:26:45.494Z,3.97
2018-09-10T23:29:13.191Z,2.70
2018-09-10T23:31:40.894Z,3.13
2018-09-10T23:34:08.559Z,2.60
2018-09-10T23:36:36.214Z,2.77
2018-09-10T23:39:05.840Z,3.00
2018-09-10T23:41:33.575Z,3.33
2018-09-10T23:44:04.789Z,2.67
2018-09-10T23:46:32.581Z,2.60
2018-09-10T23:49:00.251Z,2.20
2018-09-10T23:51:27.860Z,2.40
2018-09-10T23:53:55.555Z,2.67
2018-09-10T23:56:23.270Z,2.83
2018-09-10T23:58:50.971Z,2.93
